sensor_id;sensor_type;location;lat;lon;timestamp;P1;durP1;ratioP1;P2;durP2;ratioP2
65035;SDS011;51603;49.300;8.880;2023-08-30T00:00:17;4.70;;;4.30;;
65035;SDS011;51603;49.300;8.880;2023-08-30T00:02:45;4.30;;;3.90;;
65035;SDS011;51603;49.300;8.880;2023-08-30T00:05:11;5.17;;;4.77;;
65035;SDS011;51603;49.300;8.880;2023-08-30T00:07:36;5.90;;;4.40;;
65035;SDS011;51603;49.300;8.880;2023-08-30T00:10:02;4.70;;;4.30;;
65035;SDS011;51603;49.300;8.880;2023-08-30T00:12:28;5.00;;;4.60;;
65035;SDS011;51603;49.300;8.880;2023-08-30T00:14:54;4.67;;;4.27;;
65035;SDS011;51603;49.300;8.880;2023-08-30T00:17:20;4.90;;;4.50;;
65035;SDS011;51603;49.300;8.880;2023-08-30T00:19:46;4.17;;;3.77;;
65035;SDS011;51603;49.300;8.880;2023-08-30T00:22:13;6.70;;;5.00;;
65035;SDS011;51603;49.300;8.880;2023-08-30T00:24:39;5.57;;;5.00;;
65035;SDS011;51603;49.300;8.880;2023-08-30T00:27:04;4.60;;;4.20;;
65035;SDS011;51603;49.300;8.880;2023-08-30T00:29:30;4.40;;;4.10;;
65035;SDS011;51603;49.300;8.880;2023-08-30T00:31:55;4.70;;;4.30;;
65035;SDS011;51603;49.300;8.880;2023-08-30T00:34:21;5.30;;;3.77;;
65035;SDS011;51603;49.300;8.880;2023-08-30T00:36:46;6.73;;;4.67;;
65035;SDS011;51603;49.300;8.880;2023-08-30T00:39:12;4.20;;;3.80;;
65035;SDS011;51603;49.300;8.880;2023-08-30T00:41:38;5.77;;;5.27;;
65035;SDS011;51603;49.300;8.880;2023-08-30T00:44:04;7.60;;;4.53;;
65035;SDS011;51603;49.300;8.880;2023-08-30T00:46:29;5.10;;;4.70;;
65035;SDS011;51603;49.300;8.880;2023-08-30T00:48:55;4.47;;;4.17;;
65035;SDS011;51603;49.300;8.880;2023-08-30T00:51:21;6.27;;;5.77;;
65035;SDS011;51603;49.300;8.880;2023-08-30T00:53:47;5.97;;;5.40;;
65035;SDS011;51603;49.300;8.880;2023-08-30T00:56:13;4.83;;;4.43;;
65035;SDS011;51603;49.300;8.880;2023-08-30T00:58:39;4.03;;;3.73;;
65035;SDS011;51603;49.300;8.880;2023-08-30T01:01:04;4.73;;;4.10;;
65035;SDS011;51603;49.300;8.880;2023-08-30T01:03:34;5.40;;;4.60;;
65035;SDS011;51603;49.300;8.880;2023-08-30T01:06:00;6.33;;;5.83;;
65035;SDS011;51603;49.300;8.880;2023-08-30T01:08:26;7.90;;;6.00;;
65035;SDS011;51603;49.300;8.880;2023-08-30T01:13:37;5.00;;;4.60;;
65035;SDS011;51603;49.300;8.880;2023-08-30T01:16:09;5.37;;;4.97;;
65035;SDS011;51603;49.300;8.880;2023-08-30T01:18:35;5.70;;;5.20;;
65035;SDS011;51603;49.300;8.880;2023-08-30T01:21:02;5.90;;;5.50;;
65035;SDS011;51603;49.300;8.880;2023-08-30T01:23:39;7.70;;;7.00;;
65035;SDS011;51603;49.300;8.880;2023-08-30T01:29:08;6.20;;;5.40;;
65035;SDS011;51603;49.300;8.880;2023-08-30T01:31:37;5.47;;;5.07;;
65035;SDS011;51603;49.300;8.880;2023-08-30T01:34:04;5.33;;;4.90;;
65035;SDS011;51603;49.300;8.880;2023-08-30T01:36:32;6.43;;;5.93;;
65035;SDS011;51603;49.300;8.880;2023-08-30T01:38:58;6.50;;;6.00;;
65035;SDS011;51603;49.300;8.880;2023-08-30T01:41:25;6.33;;;5.83;;
65035;SDS011;51603;49.300;8.880;2023-08-30T01:43:52;6.13;;;5.63;;
65035;SDS011;51603;49.300;8.880;2023-08-30T01:46:20;5.53;;;5.10;;
65035;SDS011;51603;49.300;8.880;2023-08-30T01:48:47;8.33;;;6.60;;
65035;SDS011;51603;49.300;8.880;2023-08-30T01:51:14;6.10;;;5.60;;
65035;SDS011;51603;49.300;8.880;2023-08-30T01:53:42;6.50;;;6.00;;
65035;SDS011;51603;49.300;8.880;2023-08-30T01:56:09;7.13;;;6.53;;
65035;SDS011;51603;49.300;8.880;2023-08-30T01:58:35;8.10;;;7.30;;
65035;SDS011;51603;49.300;8.880;2023-08-30T02:01:01;8.40;;;6.67;;
65035;SDS011;51603;49.300;8.880;2023-08-30T02:03:26;6.87;;;6.27;;
65035;SDS011;51603;49.300;8.880;2023-08-30T02:05:56;7.27;;;6.57;;
65035;SDS011;51603;49.300;8.880;2023-08-30T02:08:49;6.53;;;5.93;;
65035;SDS011;51603;49.300;8.880;2023-08-30T02:11:26;8.80;;;7.97;;
65035;SDS011;51603;49.300;8.880;2023-08-30T02:13:54;7.43;;;6.83;;
65035;SDS011;51603;49.300;8.880;2023-08-30T02:16:22;6.73;;;6.23;;
65035;SDS011;51603;49.300;8.880;2023-08-30T02:18:50;6.73;;;6.23;;
65035;SDS011;51603;49.300;8.880;2023-08-30T02:21:15;6.33;;;5.90;;
65035;SDS011;51603;49.300;8.880;2023-08-30T02:23:41;5.87;;;5.37;;
65035;SDS011;51603;49.300;8.880;2023-08-30T02:26:07;6.83;;;6.23;;
65035;SDS011;51603;49.300;8.880;2023-08-30T02:28:32;7.23;;;6.60;;
65035;SDS011;51603;49.300;8.880;2023-08-30T02:30:58;7.40;;;6.50;;
65035;SDS011;51603;49.300;8.880;2023-08-30T02:33:23;11.13;;;8.13;;
65035;SDS011;51603;49.300;8.880;2023-08-30T02:35:49;7.03;;;6.37;;
65035;SDS011;51603;49.300;8.880;2023-08-30T02:38:14;7.00;;;6.50;;
65035;SDS011;51603;49.300;8.880;2023-08-30T02:40:40;8.33;;;7.63;;
65035;SDS011;51603;49.300;8.880;2023-08-30T02:43:05;6.80;;;6.10;;
65035;SDS011;51603;49.300;8.880;2023-08-30T02:45:31;7.10;;;6.50;;
65035;SDS011;51603;49.300;8.880;2023-08-30T02:47:56;6.73;;;6.13;;
65035;SDS011;51603;49.300;8.880;2023-08-30T02:50:23;7.20;;;6.57;;
65035;SDS011;51603;49.300;8.880;2023-08-30T02:52:48;6.97;;;6.30;;
65035;SDS011;51603;49.300;8.880;2023-08-30T02:55:14;7.03;;;6.33;;
65035;SDS011;51603;49.300;8.880;2023-08-30T02:57:39;8.70;;;6.80;;
65035;SDS011;51603;49.300;8.880;2023-08-30T03:00:05;6.87;;;6.37;;
65035;SDS011;51603;49.300;8.880;2023-08-30T03:02:32;7.90;;;7.07;;
65035;SDS011;51603;49.300;8.880;2023-08-30T03:04:58;7.90;;;7.20;;
65035;SDS011;51603;49.300;8.880;2023-08-30T03:07:24;7.43;;;6.83;;
65035;SDS011;51603;49.300;8.880;2023-08-30T03:09:53;7.07;;;6.50;;
65035;SDS011;51603;49.300;8.880;2023-08-30T03:12:18;7.63;;;6.93;;
65035;SDS011;51603;49.300;8.880;2023-08-30T03:14:44;7.03;;;6.43;;
65035;SDS011;51603;49.300;8.880;2023-08-30T03:17:09;7.10;;;6.40;;
65035;SDS011;51603;49.300;8.880;2023-08-30T03:19:35;7.50;;;7.00;;
65035;SDS011;51603;49.300;8.880;2023-08-30T03:22:00;7.43;;;6.83;;
65035;SDS011;51603;49.300;8.880;2023-08-30T03:24:26;8.50;;;7.87;;
65035;SDS011;51603;49.300;8.880;2023-08-30T03:26:51;8.80;;;8.10;;
65035;SDS011;51603;49.300;8.880;2023-08-30T03:29:17;9.00;;;8.20;;
65035;SDS011;51603;49.300;8.880;2023-08-30T03:31:42;7.60;;;7.00;;
65035;SDS011;51603;49.300;8.880;2023-08-30T03:34:08;9.53;;;7.53;;
65035;SDS011;51603;49.300;8.880;2023-08-30T03:36:34;7.83;;;7.23;;
65035;SDS011;51603;49.300;8.880;2023-08-30T03:39:00;9.07;;;8.27;;
65035;SDS011;51603;49.300;8.880;2023-08-30T03:41:25;8.20;;;7.50;;
65035;SDS011;51603;49.300;8.880;2023-08-30T03:43:51;7.87;;;6.90;;
65035;SDS011;51603;49.300;8.880;2023-08-30T03:46:16;8.63;;;7.03;;
65035;SDS011;51603;49.300;8.880;2023-08-30T03:48:42;8.23;;;7.53;;
65035;SDS011;51603;49.300;8.880;2023-08-30T03:51:08;8.00;;;7.37;;
65035;SDS011;51603;49.300;8.880;2023-08-30T03:53:33;7.73;;;7.13;;
65035;SDS011;51603;49.300;8.880;2023-08-30T03:55:59;8.73;;;8.03;;
65035;SDS011;51603;49.300;8.880;2023-08-30T03:58:24;8.83;;;8.13;;
65035;SDS011;51603;49.300;8.880;2023-08-30T04:00:50;8.17;;;7.37;;
65035;SDS011;51603;49.300;8.880;2023-08-30T04:03:16;8.73;;;7.93;;
65035;SDS011;51603;49.300;8.880;2023-08-30T04:05:42;7.70;;;7.10;;
65035;SDS011;51603;49.300;8.880;2023-08-30T04:08:08;8.90;;;8.20;;
65035;SDS011;51603;49.300;8.880;2023-08-30T04:10:37;8.17;;;7.40;;
65035;SDS011;51603;49.300;8.880;2023-08-30T04:13:04;8.40;;;7.50;;
65035;SDS011;51603;49.300;8.880;2023-08-30T04:15:33;8.17;;;7.57;;
65035;SDS011;51603;49.300;8.880;2023-08-30T04:17:59;7.00;;;6.40;;
65035;SDS011;51603;49.300;8.880;2023-08-30T04:20:26;8.53;;;7.73;;
65035;SDS011;51603;49.300;8.880;2023-08-30T04:22:51;8.57;;;7.97;;
65035;SDS011;51603;49.300;8.880;2023-08-30T04:25:18;8.67;;;7.70;;
65035;SDS011;51603;49.300;8.880;2023-08-30T04:27:43;10.07;;;9.17;;
65035;SDS011;51603;49.300;8.880;2023-08-30T04:30:09;9.63;;;8.83;;
65035;SDS011;51603;49.300;8.880;2023-08-30T04:32:35;13.57;;;12.27;;
65035;SDS011;51603;49.300;8.880;2023-08-30T04:35:01;11.40;;;10.40;;
65035;SDS011;51603;49.300;8.880;2023-08-30T04:37:29;10.27;;;9.40;;
65035;SDS011;51603;49.300;8.880;2023-08-30T04:39:58;10.77;;;9.33;;
65035;SDS011;51603;49.300;8.880;2023-08-30T04:42:24;9.60;;;8.90;;
65035;SDS011;51603;49.300;8.880;2023-08-30T04:44:50;11.17;;;10.20;;
65035;SDS011;51603;49.300;8.880;2023-08-30T04:47:17;10.93;;;9.80;;
65035;SDS011;51603;49.300;8.880;2023-08-30T04:49:42;11.50;;;10.60;;
65035;SDS011;51603;49.300;8.880;2023-08-30T04:52:08;11.43;;;10.37;;
65035;SDS011;51603;49.300;8.880;2023-08-30T04:54:33;11.43;;;10.53;;
65035;SDS011;51603;49.300;8.880;2023-08-30T04:56:59;9.63;;;8.90;;
65035;SDS011;51603;49.300;8.880;2023-08-30T04:59:24;9.00;;;8.30;;
65035;SDS011;51603;49.300;8.880;2023-08-30T05:01:50;9.80;;;9.00;;
65035;SDS011;51603;49.300;8.880;2023-08-30T05:04:16;9.50;;;8.70;;
65035;SDS011;51603;49.300;8.880;2023-08-30T05:06:42;8.73;;;8.03;;
65035;SDS011;51603;49.300;8.880;2023-08-30T05:09:07;10.57;;;9.80;;
65035;SDS011;51603;49.300;8.880;2023-08-30T05:11:33;10.33;;;9.43;;
65035;SDS011;51603;49.300;8.880;2023-08-30T05:13:59;10.47;;;9.57;;
65035;SDS011;51603;49.300;8.880;2023-08-30T05:16:24;10.30;;;9.37;;
65035;SDS011;51603;49.300;8.880;2023-08-30T05:18:50;11.13;;;10.10;;
65035;SDS011;51603;49.300;8.880;2023-08-30T05:21:15;9.80;;;9.00;;
65035;SDS011;51603;49.300;8.880;2023-08-30T05:23:41;9.30;;;8.60;;
65035;SDS011;51603;49.300;8.880;2023-08-30T05:26:10;10.43;;;9.63;;
65035;SDS011;51603;49.300;8.880;2023-08-30T05:28:37;12.50;;;11.40;;
65035;SDS011;51603;49.300;8.880;2023-08-30T05:31:03;11.70;;;10.60;;
65035;SDS011;51603;49.300;8.880;2023-08-30T05:33:29;11.53;;;10.53;;
65035;SDS011;51603;49.300;8.880;2023-08-30T05:35:55;12.47;;;11.47;;
65035;SDS011;51603;49.300;8.880;2023-08-30T05:38:20;12.60;;;11.30;;
65035;SDS011;51603;49.300;8.880;2023-08-30T05:40:46;13.70;;;12.23;;
65035;SDS011;51603;49.300;8.880;2023-08-30T05:43:11;10.63;;;9.63;;
65035;SDS011;51603;49.300;8.880;2023-08-30T05:45:37;11.30;;;10.40;;
65035;SDS011;51603;49.300;8.880;2023-08-30T05:48:03;11.27;;;10.37;;
65035;SDS011;51603;49.300;8.880;2023-08-30T05:50:28;11.90;;;11.00;;
65035;SDS011;51603;49.300;8.880;2023-08-30T05:52:54;11.00;;;10.00;;
65035;SDS011;51603;49.300;8.880;2023-08-30T05:55:20;12.37;;;11.27;;
65035;SDS011;51603;49.300;8.880;2023-08-30T05:57:45;11.10;;;10.10;;
65035;SDS011;51603;49.300;8.880;2023-08-30T06:00:11;12.87;;;11.10;;
65035;SDS011;51603;49.300;8.880;2023-08-30T06:02:38;11.80;;;10.77;;
65035;SDS011;51603;49.300;8.880;2023-08-30T06:05:04;12.10;;;11.00;;
65035;SDS011;51603;49.300;8.880;2023-08-30T06:07:29;11.43;;;10.53;;
65035;SDS011;51603;49.300;8.880;2023-08-30T06:09:55;10.50;;;9.60;;
65035;SDS011;51603;49.300;8.880;2023-08-30T06:12:20;11.97;;;10.77;;
65035;SDS011;51603;49.300;8.880;2023-08-30T06:14:46;10.33;;;9.43;;
65035;SDS011;51603;49.300;8.880;2023-08-30T06:17:17;11.33;;;10.33;;
65035;SDS011;51603;49.300;8.880;2023-08-30T06:19:43;11.57;;;10.63;;
65035;SDS011;51603;49.300;8.880;2023-08-30T06:22:10;11.53;;;10.53;;
65035;SDS011;51603;49.300;8.880;2023-08-30T06:24:35;10.70;;;9.83;;
65035;SDS011;51603;49.300;8.880;2023-08-30T06:27:01;10.90;;;9.90;;
65035;SDS011;51603;49.300;8.880;2023-08-30T06:29:26;12.03;;;10.80;;
65035;SDS011;51603;49.300;8.880;2023-08-30T06:31:52;12.13;;;11.13;;
65035;SDS011;51603;49.300;8.880;2023-08-30T06:34:17;12.57;;;11.27;;
65035;SDS011;51603;49.300;8.880;2023-08-30T06:36:43;10.67;;;9.80;;
65035;SDS011;51603;49.300;8.880;2023-08-30T06:39:08;10.00;;;9.10;;
65035;SDS011;51603;49.300;8.880;2023-08-30T06:41:34;10.90;;;9.80;;
65035;SDS011;51603;49.300;8.880;2023-08-30T06:43:59;10.57;;;9.77;;
65035;SDS011;51603;49.300;8.880;2023-08-30T06:46:25;10.50;;;9.70;;
65035;SDS011;51603;49.300;8.880;2023-08-30T06:48:50;13.73;;;11.60;;
65035;SDS011;51603;49.300;8.880;2023-08-30T06:51:16;12.17;;;11.23;;
65035;SDS011;51603;49.300;8.880;2023-08-30T06:53:41;11.80;;;10.90;;
65035;SDS011;51603;49.300;8.880;2023-08-30T06:56:07;12.73;;;11.63;;
65035;SDS011;51603;49.300;8.880;2023-08-30T06:58:32;13.00;;;12.00;;
65035;SDS011;51603;49.300;8.880;2023-08-30T07:00:58;11.87;;;10.63;;
65035;SDS011;51603;49.300;8.880;2023-08-30T07:03:23;12.40;;;11.40;;
65035;SDS011;51603;49.300;8.880;2023-08-30T07:05:52;11.93;;;10.87;;
65035;SDS011;51603;49.300;8.880;2023-08-30T07:08:18;11.10;;;10.20;;
65035;SDS011;51603;49.300;8.880;2023-08-30T07:10:43;12.53;;;10.70;;
65035;SDS011;51603;49.300;8.880;2023-08-30T07:13:09;11.63;;;10.73;;
65035;SDS011;51603;49.300;8.880;2023-08-30T07:15:38;11.73;;;10.73;;
65035;SDS011;51603;49.300;8.880;2023-08-30T07:18:05;9.73;;;8.97;;
65035;SDS011;51603;49.300;8.880;2023-08-30T07:20:31;9.70;;;8.80;;
65035;SDS011;51603;49.300;8.880;2023-08-30T07:22:57;8.77;;;7.90;;
65035;SDS011;51603;49.300;8.880;2023-08-30T07:25:22;8.37;;;7.67;;
65035;SDS011;51603;49.300;8.880;2023-08-30T07:27:49;9.53;;;7.50;;
65035;SDS011;51603;49.300;8.880;2023-08-30T07:30:14;8.33;;;7.00;;
65035;SDS011;51603;49.300;8.880;2023-08-30T07:32:40;8.73;;;7.80;;
65035;SDS011;51603;49.300;8.880;2023-08-30T07:35:06;8.57;;;7.97;;
65035;SDS011;51603;49.300;8.880;2023-08-30T07:37:31;8.63;;;7.83;;
65035;SDS011;51603;49.300;8.880;2023-08-30T07:39:57;8.20;;;7.40;;
65035;SDS011;51603;49.300;8.880;2023-08-30T07:42:23;7.80;;;7.20;;
65035;SDS011;51603;49.300;8.880;2023-08-30T07:44:48;7.73;;;7.20;;
65035;SDS011;51603;49.300;8.880;2023-08-30T07:47:14;7.73;;;7.13;;
65035;SDS011;51603;49.300;8.880;2023-08-30T07:49:40;7.30;;;6.60;;
65035;SDS011;51603;49.300;8.880;2023-08-30T07:52:06;7.97;;;7.37;;
65035;SDS011;51603;49.300;8.880;2023-08-30T07:54:33;7.20;;;6.60;;
65035;SDS011;51603;49.300;8.880;2023-08-30T07:56:58;7.77;;;7.07;;
65035;SDS011;51603;49.300;8.880;2023-08-30T07:59:24;7.83;;;7.17;;
65035;SDS011;51603;49.300;8.880;2023-08-30T08:01:49;8.20;;;7.40;;
65035;SDS011;51603;49.300;8.880;2023-08-30T08:04:16;8.50;;;7.63;;
65035;SDS011;51603;49.300;8.880;2023-08-30T08:06:42;7.70;;;6.10;;
65035;SDS011;51603;49.300;8.880;2023-08-30T08:09:07;7.37;;;6.70;;
65035;SDS011;51603;49.300;8.880;2023-08-30T08:11:33;6.60;;;6.10;;
65035;SDS011;51603;49.300;8.880;2023-08-30T08:13:58;6.77;;;6.27;;
65035;SDS011;51603;49.300;8.880;2023-08-30T08:16:24;7.87;;;7.17;;
65035;SDS011;51603;49.300;8.880;2023-08-30T08:18:49;7.63;;;6.97;;
65035;SDS011;51603;49.300;8.880;2023-08-30T08:21:16;7.07;;;6.47;;
65035;SDS011;51603;49.300;8.880;2023-08-30T08:23:42;7.30;;;6.70;;
65035;SDS011;51603;49.300;8.880;2023-08-30T08:26:08;7.23;;;6.50;;
65035;SDS011;51603;49.300;8.880;2023-08-30T08:28:33;6.10;;;5.70;;
65035;SDS011;51603;49.300;8.880;2023-08-30T08:30:59;6.47;;;5.97;;
65035;SDS011;51603;49.300;8.880;2023-08-30T08:33:25;5.97;;;5.57;;
65035;SDS011;51603;49.300;8.880;2023-08-30T08:35:50;9.10;;;5.80;;
65035;SDS011;51603;49.300;8.880;2023-08-30T08:38:16;8.03;;;7.30;;
65035;SDS011;51603;49.300;8.880;2023-08-30T08:40:41;6.83;;;6.23;;
65035;SDS011;51603;49.300;8.880;2023-08-30T08:43:08;8.07;;;7.23;;
65035;SDS011;51603;49.300;8.880;2023-08-30T08:45:36;8.10;;;7.30;;
65035;SDS011;51603;49.300;8.880;2023-08-30T08:48:04;9.63;;;6.67;;
65035;SDS011;51603;49.300;8.880;2023-08-30T08:50:31;7.13;;;6.40;;
65035;SDS011;51603;49.300;8.880;2023-08-30T08:52:57;6.93;;;5.90;;
65035;SDS011;51603;49.300;8.880;2023-08-30T08:55:22;7.17;;;6.50;;
65035;SDS011;51603;49.300;8.880;2023-08-30T08:57:49;6.57;;;5.97;;
65035;SDS011;51603;49.300;8.880;2023-08-30T09:00:15;6.30;;;5.70;;
65035;SDS011;51603;49.300;8.880;2023-08-30T09:02:43;5.80;;;5.27;;
65035;SDS011;51603;49.300;8.880;2023-08-30T09:05:09;5.40;;;5.00;;
65035;SDS011;51603;49.300;8.880;2023-08-30T09:07:35;6.90;;;6.20;;
65035;SDS011;51603;49.300;8.880;2023-08-30T09:10:02;6.60;;;6.00;;
65035;SDS011;51603;49.300;8.880;2023-08-30T09:12:31;6.53;;;6.00;;
65035;SDS011;51603;49.300;8.880;2023-08-30T09:14:57;6.90;;;6.20;;
65035;SDS011;51603;49.300;8.880;2023-08-30T09:17:23;7.03;;;6.27;;
65035;SDS011;51603;49.300;8.880;2023-08-30T09:19:49;7.17;;;6.57;;
65035;SDS011;51603;49.300;8.880;2023-08-30T09:22:15;6.40;;;5.80;;
65035;SDS011;51603;49.300;8.880;2023-08-30T09:24:41;6.17;;;5.67;;
65035;SDS011;51603;49.300;8.880;2023-08-30T09:27:06;6.30;;;5.80;;
65035;SDS011;51603;49.300;8.880;2023-08-30T09:29:32;6.10;;;5.60;;
65035;SDS011;51603;49.300;8.880;2023-08-30T09:31:57;5.37;;;4.93;;
65035;SDS011;51603;49.300;8.880;2023-08-30T09:34:23;7.67;;;5.60;;
65035;SDS011;51603;49.300;8.880;2023-08-30T09:36:50;5.43;;;5.03;;
65035;SDS011;51603;49.300;8.880;2023-08-30T09:39:17;6.13;;;5.07;;
65035;SDS011;51603;49.300;8.880;2023-08-30T09:41:43;5.40;;;4.90;;
65035;SDS011;51603;49.300;8.880;2023-08-30T09:44:10;5.40;;;5.00;;
65035;SDS011;51603;49.300;8.880;2023-08-30T09:46:39;8.00;;;4.77;;
65035;SDS011;51603;49.300;8.880;2023-08-30T09:49:06;5.17;;;4.77;;
65035;SDS011;51603;49.300;8.880;2023-08-30T09:51:33;5.37;;;4.97;;
65035;SDS011;51603;49.300;8.880;2023-08-30T09:53:59;5.77;;;5.17;;
65035;SDS011;51603;49.300;8.880;2023-08-30T09:56:29;5.37;;;4.87;;
65035;SDS011;51603;49.300;8.880;2023-08-30T09:58:57;4.70;;;4.30;;
65035;SDS011;51603;49.300;8.880;2023-08-30T10:01:25;5.20;;;4.80;;
65035;SDS011;51603;49.300;8.880;2023-08-30T10:03:52;5.00;;;4.60;;
65035;SDS011;51603;49.300;8.880;2023-08-30T10:06:20;5.03;;;4.60;;
65035;SDS011;51603;49.300;8.880;2023-08-30T10:08:47;4.47;;;3.93;;
65035;SDS011;51603;49.300;8.880;2023-08-30T10:11:16;4.63;;;4.23;;
65035;SDS011;51603;49.300;8.880;2023-08-30T10:13:43;4.90;;;4.00;;
65035;SDS011;51603;49.300;8.880;2023-08-30T10:16:09;3.70;;;3.40;;
65035;SDS011;51603;49.300;8.880;2023-08-30T10:18:40;5.23;;;4.33;;
65035;SDS011;51603;49.300;8.880;2023-08-30T10:21:08;4.30;;;3.90;;
65035;SDS011;51603;49.300;8.880;2023-08-30T10:23:37;3.83;;;3.50;;
65035;SDS011;51603;49.300;8.880;2023-08-30T10:26:04;5.83;;;3.97;;
65035;SDS011;51603;49.300;8.880;2023-08-30T10:28:32;4.40;;;4.10;;
65035;SDS011;51603;49.300;8.880;2023-08-30T10:30:59;8.20;;;4.33;;
65035;SDS011;51603;49.300;8.880;2023-08-30T10:33:25;4.90;;;4.20;;
65035;SDS011;51603;49.300;8.880;2023-08-30T10:35:51;4.00;;;3.70;;
65035;SDS011;51603;49.300;8.880;2023-08-30T10:38:26;4.30;;;3.37;;
65035;SDS011;51603;49.300;8.880;2023-08-30T10:40:53;4.20;;;3.70;;
65035;SDS011;51603;49.300;8.880;2023-08-30T10:43:29;7.37;;;4.30;;
65035;SDS011;51603;49.300;8.880;2023-08-30T10:46:05;5.03;;;4.50;;
65035;SDS011;51603;49.300;8.880;2023-08-30T10:48:40;3.83;;;3.40;;
65035;SDS011;51603;49.300;8.880;2023-08-30T10:51:20;4.33;;;3.70;;
65035;SDS011;51603;49.300;8.880;2023-08-30T10:54:13;5.03;;;4.23;;
65035;SDS011;51603;49.300;8.880;2023-08-30T10:56:47;4.30;;;4.00;;
65035;SDS011;51603;49.300;8.880;2023-08-30T10:59:17;3.60;;;3.30;;
65035;SDS011;51603;49.300;8.880;2023-08-30T11:01:44;3.60;;;3.30;;
65035;SDS011;51603;49.300;8.880;2023-08-30T11:04:12;3.23;;;2.93;;
65035;SDS011;51603;49.300;8.880;2023-08-30T11:06:38;2.30;;;2.10;;
65035;SDS011;51603;49.300;8.880;2023-08-30T11:09:04;2.63;;;2.17;;
65035;SDS011;51603;49.300;8.880;2023-08-30T11:11:30;2.93;;;2.37;;
65035;SDS011;51603;49.300;8.880;2023-08-30T11:14:03;2.97;;;2.70;;
65035;SDS011;51603;49.300;8.880;2023-08-30T11:16:30;2.83;;;2.20;;
65035;SDS011;51603;49.300;8.880;2023-08-30T11:18:56;2.60;;;2.13;;
65035;SDS011;51603;49.300;8.880;2023-08-30T11:21:21;2.90;;;2.07;;
65035;SDS011;51603;49.300;8.880;2023-08-30T11:23:46;3.50;;;2.20;;
65035;SDS011;51603;49.300;8.880;2023-08-30T11:26:12;4.00;;;2.17;;
65035;SDS011;51603;49.300;8.880;2023-08-30T11:28:38;2.70;;;2.50;;
65035;SDS011;51603;49.300;8.880;2023-08-30T11:31:10;2.13;;;1.90;;
65035;SDS011;51603;49.300;8.880;2023-08-30T11:33:51;3.40;;;2.70;;
65035;SDS011;51603;49.300;8.880;2023-08-30T11:36:18;2.53;;;2.20;;
65035;SDS011;51603;49.300;8.880;2023-08-30T11:38:45;5.67;;;2.40;;
65035;SDS011;51603;49.300;8.880;2023-08-30T11:41:10;4.73;;;2.37;;
65035;SDS011;51603;49.300;8.880;2023-08-30T11:43:37;3.50;;;2.63;;
65035;SDS011;51603;49.300;8.880;2023-08-30T11:46:03;4.03;;;3.17;;
65035;SDS011;51603;49.300;8.880;2023-08-30T11:48:29;2.70;;;2.50;;
65035;SDS011;51603;49.300;8.880;2023-08-30T11:50:54;3.33;;;2.60;;
65035;SDS011;51603;49.300;8.880;2023-08-30T11:53:20;3.00;;;2.80;;
65035;SDS011;51603;49.300;8.880;2023-08-30T11:55:46;2.40;;;2.20;;
65035;SDS011;51603;49.300;8.880;2023-08-30T11:58:12;2.57;;;1.87;;
65035;SDS011;51603;49.300;8.880;2023-08-30T12:00:37;4.27;;;2.97;;
65035;SDS011;51603;49.300;8.880;2023-08-30T12:03:05;2.80;;;1.87;;
65035;SDS011;51603;49.300;8.880;2023-08-30T12:05:30;2.27;;;1.63;;
65035;SDS011;51603;49.300;8.880;2023-08-30T12:07:59;2.87;;;2.00;;
65035;SDS011;51603;49.300;8.880;2023-08-30T12:10:26;1.90;;;1.70;;
65035;SDS011;51603;49.300;8.880;2023-08-30T12:12:53;2.10;;;1.73;;
65035;SDS011;51603;49.300;8.880;2023-08-30T12:15:19;2.60;;;2.00;;
65035;SDS011;51603;49.300;8.880;2023-08-30T12:17:49;2.40;;;1.97;;
65035;SDS011;51603;49.300;8.880;2023-08-30T12:20:16;3.07;;;1.97;;
65035;SDS011;51603;49.300;8.880;2023-08-30T12:22:42;2.80;;;1.70;;
65035;SDS011;51603;49.300;8.880;2023-08-30T12:25:18;2.80;;;1.80;;
65035;SDS011;51603;49.300;8.880;2023-08-30T12:27:45;2.33;;;2.10;;
65035;SDS011;51603;49.300;8.880;2023-08-30T12:30:11;3.80;;;2.13;;
65035;SDS011;51603;49.300;8.880;2023-08-30T12:32:38;2.23;;;2.03;;
65035;SDS011;51603;49.300;8.880;2023-08-30T12:35:03;2.17;;;1.70;;
65035;SDS011;51603;49.300;8.880;2023-08-30T12:37:29;2.50;;;2.30;;
65035;SDS011;51603;49.300;8.880;2023-08-30T12:39:55;2.90;;;2.17;;
65035;SDS011;51603;49.300;8.880;2023-08-30T12:42:20;2.70;;;2.30;;
65035;SDS011;51603;49.300;8.880;2023-08-30T12:44:46;3.43;;;2.50;;
65035;SDS011;51603;49.300;8.880;2023-08-30T12:47:11;2.43;;;2.23;;
65035;SDS011;51603;49.300;8.880;2023-08-30T12:49:39;2.07;;;1.80;;
65035;SDS011;51603;49.300;8.880;2023-08-30T12:52:04;3.37;;;2.07;;
65035;SDS011;51603;49.300;8.880;2023-08-30T12:54:30;2.63;;;1.70;;
65035;SDS011;51603;49.300;8.880;2023-08-30T12:56:56;2.50;;;2.30;;
65035;SDS011;51603;49.300;8.880;2023-08-30T12:59:21;3.63;;;3.00;;
65035;SDS011;51603;49.300;8.880;2023-08-30T13:01:47;2.63;;;2.43;;
65035;SDS011;51603;49.300;8.880;2023-08-30T13:04:12;6.70;;;2.37;;
65035;SDS011;51603;49.300;8.880;2023-08-30T13:06:38;2.13;;;1.93;;
65035;SDS011;51603;49.300;8.880;2023-08-30T13:09:03;2.37;;;2.17;;
65035;SDS011;51603;49.300;8.880;2023-08-30T13:11:29;3.27;;;2.47;;
65035;SDS011;51603;49.300;8.880;2023-08-30T13:13:57;2.73;;;2.23;;
65035;SDS011;51603;49.300;8.880;2023-08-30T13:16:23;3.47;;;3.00;;
65035;SDS011;51603;49.300;8.880;2023-08-30T13:18:51;2.67;;;2.47;;
65035;SDS011;51603;49.300;8.880;2023-08-30T13:21:17;2.17;;;1.97;;
65035;SDS011;51603;49.300;8.880;2023-08-30T13:23:42;2.73;;;2.53;;
65035;SDS011;51603;49.300;8.880;2023-08-30T13:26:08;3.33;;;3.03;;
65035;SDS011;51603;49.300;8.880;2023-08-30T13:28:34;2.57;;;2.37;;
65035;SDS011;51603;49.300;8.880;2023-08-30T13:31:00;2.90;;;2.53;;
65035;SDS011;51603;49.300;8.880;2023-08-30T13:33:25;2.40;;;2.20;;
65035;SDS011;51603;49.300;8.880;2023-08-30T13:35:52;3.60;;;2.13;;
65035;SDS011;51603;49.300;8.880;2023-08-30T13:38:18;2.60;;;2.40;;
65035;SDS011;51603;49.300;8.880;2023-08-30T13:40:43;3.07;;;2.70;;
65035;SDS011;51603;49.300;8.880;2023-08-30T13:43:09;3.10;;;2.37;;
65035;SDS011;51603;49.300;8.880;2023-08-30T13:45:35;2.60;;;2.20;;
65035;SDS011;51603;49.300;8.880;2023-08-30T13:48:00;4.77;;;2.53;;
65035;SDS011;51603;49.300;8.880;2023-08-30T13:50:26;3.33;;;2.37;;
65035;SDS011;51603;49.300;8.880;2023-08-30T13:52:57;3.27;;;2.73;;
65035;SDS011;51603;49.300;8.880;2023-08-30T13:55:22;2.93;;;2.60;;
65035;SDS011;51603;49.300;8.880;2023-08-30T13:57:48;4.23;;;2.93;;
65035;SDS011;51603;49.300;8.880;2023-08-30T14:00:14;4.70;;;2.60;;
65035;SDS011;51603;49.300;8.880;2023-08-30T14:02:39;2.33;;;2.13;;
65035;SDS011;51603;49.300;8.880;2023-08-30T14:05:05;3.20;;;2.60;;
65035;SDS011;51603;49.300;8.880;2023-08-30T14:07:31;3.60;;;2.83;;
65035;SDS011;51603;49.300;8.880;2023-08-30T14:09:57;3.53;;;2.47;;
65035;SDS011;51603;49.300;8.880;2023-08-30T14:12:23;2.47;;;2.00;;
65035;SDS011;51603;49.300;8.880;2023-08-30T14:14:48;2.87;;;2.30;;
65035;SDS011;51603;49.300;8.880;2023-08-30T14:17:14;3.20;;;2.23;;
65035;SDS011;51603;49.300;8.880;2023-08-30T14:19:40;2.10;;;1.90;;
65035;SDS011;51603;49.300;8.880;2023-08-30T14:22:05;2.90;;;2.20;;
65035;SDS011;51603;49.300;8.880;2023-08-30T14:24:33;2.53;;;2.10;;
65035;SDS011;51603;49.300;8.880;2023-08-30T14:27:00;6.13;;;2.07;;
65035;SDS011;51603;49.300;8.880;2023-08-30T14:29:25;2.63;;;2.40;;
65035;SDS011;51603;49.300;8.880;2023-08-30T14:31:51;3.00;;;2.20;;
65035;SDS011;51603;49.300;8.880;2023-08-30T14:34:16;2.60;;;1.80;;
65035;SDS011;51603;49.300;8.880;2023-08-30T14:36:42;3.23;;;2.17;;
65035;SDS011;51603;49.300;8.880;2023-08-30T14:39:08;3.50;;;2.30;;
65035;SDS011;51603;49.300;8.880;2023-08-30T14:41:34;3.87;;;2.30;;
65035;SDS011;51603;49.300;8.880;2023-08-30T14:44:02;2.40;;;2.20;;